Time;durP1;ratioP1;P1;durP2;ratioP2;P2;SDS_P1;SDS_P2;PMS_P1;PMS_P2;Temp;Humidity;BMP_temperature;BMP_pressure;BME280_temperature;BME280_humidity;BME280_pressure;Samples;Min_cycle;Max_cycle;Signal;HPM_P1;HPM_P2
2022/09/14 00:01:24;;;;;;;5.00;2.03;;;;;;;;;;4989698;28;20053;-77
2022/09/14 00:03:54;;;;;;;3.60;1.60;;;;;;;;;;4991731;28;20046;-76
2022/09/14 00:06:20;;;;;;;5.68;1.80;;;;;;;;;;4975774;28;20054;-78
2022/09/14 00:08:49;;;;;;;4.18;1.70;;;;;;;;;;4978080;28;20058;-79
2022/09/14 00:11:15;;;;;;;4.32;1.80;;;;;;;;;;4991946;28;20129;-77
2022/09/14 00:13:43;;;;;;;3.55;1.83;;;;;;;;;;4991999;28;20522;-79
2022/09/14 00:16:14;;;;;;;3.90;1.50;;;;;;;;;;4990689;28;20073;-77
2022/09/14 00:18:41;;;;;;;4.32;1.50;;;;;;;;;;4992086;28;20046;-77
2022/09/14 00:21:08;;;;;;;3.83;1.63;;;;;;;;;;4988884;28;20116;-77
2022/09/14 00:23:35;;;;;;;3.88;1.70;;;;;;;;;;4991366;28;20133;-78
2022/09/14 00:26:08;;;;;;;4.93;2.00;;;;;;;;;;4991465;28;20050;-76
2022/09/14 00:28:45;;;;;;;2.10;1.60;;;;;;;;;;4986368;28;20050;-76
2022/09/14 00:31:11;;;;;;;3.58;1.50;;;;;;;;;;4973485;28;20046;-78
2022/09/14 00:33:38;;;;;;;3.53;1.60;;;;;;;;;;4974184;28;20786;-78
2022/09/14 00:36:05;;;;;;;4.00;1.80;;;;;;;;;;4975703;28;20047;-76
2022/09/14 00:38:31;;;;;;;6.15;1.73;;;;;;;;;;4981218;28;20050;-73
2022/09/14 00:40:57;;;;;;;;;;;;;;;;;;4990429;28;20062;-73
2022/09/14 00:43:23;;;;;;;6.50;2.20;;;;;;;;;;4993766;28;19928;-73
2022/09/14 00:45:49;;;;;;;2.42;1.73;;;;;;;;;;4993244;28;20055;-74
2022/09/14 00:48:15;;;;;;;5.78;2.00;;;;;;;;;;4993789;28;20562;-74
2022/09/14 00:50:41;;;;;;;5.43;1.80;;;;;;;;;;4992451;28;20380;-73
2022/09/14 00:53:08;;;;;;;4.63;2.10;;;;;;;;;;4979914;28;20596;-73
2022/09/14 00:55:34;;;;;;;2.50;1.73;;;;;;;;;;4993940;28;20051;-73
2022/09/14 00:58:00;;;;;;;5.20;1.40;;;;;;;;;;4992821;28;20078;-73
2022/09/14 01:00:28;;;;;;;4.35;1.50;;;;;;;;;;4993272;28;20108;-73
2022/09/14 01:02:54;;;;;;;2.63;1.73;;;;;;;;;;4991915;28;20129;-73
2022/09/14 01:05:25;;;;;;;5.13;1.67;;;;;;;;;;4994105;28;20126;-74
2022/09/14 01:07:54;;;;;;;5.25;2.10;;;;;;;;;;4991923;28;20065;-74
2022/09/14 01:10:20;;;;;;;2.60;1.40;;;;;;;;;;4993834;28;20061;-72
2022/09/14 01:13:02;;;;;;;3.80;1.50;;;;;;;;;;4992604;28;20065;-72
2022/09/14 01:15:47;;;;;;;1.85;1.42;;;;;;;;;;4993127;28;20053;-72
2022/09/14 01:18:15;;;;;;;2.30;1.50;;;;;;;;;;4993035;28;20034;-72
2022/09/14 01:20:55;;;;;;;2.75;1.63;;;;;;;;;;4993966;28;20046;-72
2022/09/14 01:23:30;;;;;;;3.50;1.98;;;;;;;;;;4993076;28;20038;-72
2022/09/14 01:26:13;;;;;;;3.22;1.85;;;;;;;;;;4993309;28;20050;-72
2022/09/14 01:29:00;;;;;;;4.63;1.50;;;;;;;;;;4993707;28;20054;-71
2022/09/14 01:31:29;;;;;;;2.85;1.63;;;;;;;;;;4993234;28;20050;-72
2022/09/14 01:33:59;;;;;;;4.35;1.92;;;;;;;;;;4989486;28;20050;-73
2022/09/14 01:36:27;;;;;;;2.30;1.42;;;;;;;;;;4992385;28;20050;-72
2022/09/14 01:38:54;;;;;;;5.53;2.10;;;;;;;;;;4992909;28;20065;-73
2022/09/14 01:41:21;;;;;;;3.78;2.33;;;;;;;;;;4993409;28;20093;-72
2022/09/14 01:44:23;;;;;;;4.22;1.85;;;;;;;;;;4993188;28;20496;-71
2022/09/14 01:46:57;;;;;;;4.88;2.10;;;;;;;;;;4916827;29;20058;-72
2022/09/14 01:49:26;;;;;;;4.45;2.15;;;;;;;;;;4984165;28;20050;-71
2022/09/14 01:52:01;;;;;;;8.90;2.00;;;;;;;;;;4990043;28;20080;-72
2022/09/14 01:54:33;;;;;;;5.32;2.00;;;;;;;;;;4992547;28;20049;-72
2022/09/14 01:57:04;;;;;;;4.65;2.03;;;;;;;;;;4991757;28;20130;-72
2022/09/14 01:59:32;;;;;;;3.72;1.85;;;;;;;;;;4993514;28;20038;-72
2022/09/14 02:01:58;;;;;;;4.43;2.08;;;;;;;;;;4992265;28;20061;-72
2022/09/14 02:04:30;;;;;;;6.10;1.92;;;;;;;;;;4993208;28;20042;-71
2022/09/14 02:06:56;;;;;;;6.63;2.00;;;;;;;;;;4990532;28;20054;-74
2022/09/14 02:09:25;;;;;;;5.85;2.30;;;;;;;;;;4992718;28;20042;-72
2022/09/14 02:11:52;;;;;;;5.85;2.25;;;;;;;;;;4992151;28;20065;-72
2022/09/14 02:14:18;;;;;;;4.35;2.10;;;;;;;;;;4991319;28;20046;-71
2022/09/14 02:16:45;;;;;;;2.88;1.65;;;;;;;;;;4978716;28;20046;-71
2022/09/14 02:19:12;;;;;;;3.28;1.67;;;;;;;;;;4979086;28;20096;-72
2022/09/14 02:21:38;;;;;;;5.22;1.83;;;;;;;;;;4991359;28;20046;-72
2022/09/14 02:24:05;;;;;;;5.18;1.80;;;;;;;;;;4978291;28;20700;-71
2022/09/14 02:26:31;;;;;;;;;;;;;;;;;;4972956;28;20046;-72
2022/09/14 02:28:57;;;;;;;6.50;1.90;;;;;;;;;;4973531;28;19926;-71
2022/09/14 02:31:23;;;;;;;;;;;;;;;;;;4973419;28;20137;-71
2022/09/14 02:33:52;;;;;;;3.65;1.90;;;;;;;;;;4972859;28;20762;-71
2022/09/14 02:36:24;;;;;;;3.65;1.92;;;;;;;;;;4971677;28;20055;-71
2022/09/14 02:38:55;;;;;;;6.05;1.85;;;;;;;;;;4972235;28;20492;-72
2022/09/14 02:41:26;;;;;;;3.25;1.60;;;;;;;;;;4975330;28;20511;-71
2022/09/14 02:43:59;;;;;;;2.17;1.35;;;;;;;;;;4992846;28;20050;-71
2022/09/14 02:46:28;;;;;;;1.83;1.33;;;;;;;;;;4987328;28;20056;-71
2022/09/14 02:49:05;;;;;;;2.15;1.48;;;;;;;;;;4992397;28;20147;-71
2022/09/14 02:51:35;;;;;;;3.10;1.83;;;;;;;;;;4976950;28;20054;-72
2022/09/14 02:54:06;;;;;;;5.60;1.70;;;;;;;;;;4973268;28;20047;-73
2022/09/14 02:56:33;;;;;;;2.10;1.40;;;;;;;;;;4986956;28;20065;-72
2022/09/14 02:58:59;;;;;;;4.80;1.52;;;;;;;;;;4991967;28;20569;-72
2022/09/14 03:01:26;;;;;;;3.47;1.48;;;;;;;;;;4990823;28;20054;-72
2022/09/14 03:03:52;;;;;;;3.03;1.55;;;;;;;;;;4979654;28;20054;-71
2022/09/14 03:06:19;;;;;;;10.68;2.20;;;;;;;;;;4990136;28;20499;-71
2022/09/14 03:08:45;;;;;;;3.60;1.88;;;;;;;;;;4991184;28;20078;-71
2022/09/14 03:11:11;;;;;;;3.92;1.50;;;;;;;;;;4991322;28;20058;-72
2022/09/14 03:13:38;;;;;;;4.72;1.85;;;;;;;;;;4991978;28;20097;-72
2022/09/14 03:16:05;;;;;;;4.57;1.85;;;;;;;;;;4991691;28;20050;-73
2022/09/14 03:18:31;;;;;;;7.03;2.22;;;;;;;;;;4991970;28;20127;-71
2022/09/14 03:21:07;;;;;;;7.47;2.17;;;;;;;;;;4990769;28;20046;-73
2022/09/14 03:23:39;;;;;;;3.57;1.90;;;;;;;;;;4988516;28;20051;-71
2022/09/14 03:26:06;;;;;;;7.05;2.38;;;;;;;;;;4982554;28;20712;-73
2022/09/14 03:28:32;;;;;;;3.90;2.40;;;;;;;;;;4971568;28;20047;-72
2022/09/14 03:31:02;;;;;;;4.45;2.10;;;;;;;;;;4972222;28;20094;-72
2022/09/14 03:33:28;;;;;;;6.88;2.50;;;;;;;;;;4976159;28;20045;-71
2022/09/14 03:35:54;;;;;;;6.10;2.20;;;;;;;;;;4991089;28;20062;-72
2022/09/14 03:38:20;;;;;;;5.15;2.05;;;;;;;;;;4985475;28;20054;-71
2022/09/14 03:40:47;;;;;;;6.43;2.42;;;;;;;;;;4972184;28;20047;-71
2022/09/14 03:43:13;;;;;;;3.55;2.20;;;;;;;;;;4971938;28;20058;-72
2022/09/14 03:45:41;;;;;;;4.43;2.20;;;;;;;;;;4977748;28;20408;-71
2022/09/14 03:48:07;;;;;;;3.13;2.03;;;;;;;;;;4972163;28;20046;-71
2022/09/14 03:50:33;;;;;;;3.83;2.10;;;;;;;;;;4973329;28;20065;-71
2022/09/14 03:52:59;;;;;;;3.70;2.38;;;;;;;;;;4989622;28;20050;-71
2022/09/14 03:55:25;;;;;;;4.85;2.30;;;;;;;;;;4979183;28;20069;-72
2022/09/14 03:57:55;;;;;;;4.43;2.65;;;;;;;;;;4972345;28;20054;-71
2022/09/14 04:00:21;;;;;;;4.95;2.40;;;;;;;;;;4971460;28;20047;-71
2022/09/14 04:02:47;;;;;;;9.02;2.30;;;;;;;;;;4971684;28;20090;-72
2022/09/14 04:05:13;;;;;;;6.88;2.38;;;;;;;;;;4971305;28;20605;-72
2022/09/14 04:07:39;;;;;;;4.10;2.38;;;;;;;;;;4975640;28;20108;-71
2022/09/14 04:10:06;;;;;;;4.85;2.33;;;;;;;;;;4988978;28;20045;-72
2022/09/14 04:12:36;;;;;;;6.70;2.50;;;;;;;;;;4982393;28;20057;-71
2022/09/14 04:15:02;;;;;;;4.90;2.30;;;;;;;;;;4990407;28;20053;-72
2022/09/14 04:17:29;;;;;;;4.35;2.40;;;;;;;;;;4990348;28;20716;-72
2022/09/14 04:19:55;;;;;;;10.65;2.75;;;;;;;;;;4987815;28;20051;-71
2022/09/14 04:22:21;;;;;;;11.55;2.65;;;;;;;;;;4969353;28;20047;-71
2022/09/14 04:24:47;;;;;;;7.20;2.50;;;;;;;;;;4971702;28;20059;-72
2022/09/14 04:27:13;;;;;;;8.30;2.90;;;;;;;;;;4971744;28;20054;-72
2022/09/14 04:29:39;;;;;;;;;;;;;;;;;;4971945;28;20051;-72
2022/09/14 04:32:06;;;;;;;4.55;2.30;;;;;;;;;;4989146;28;19922;-71
2022/09/14 04:34:32;;;;;;;3.50;2.33;;;;;;;;;;4985690;28;20086;-72
2022/09/14 04:36:58;;;;;;;6.07;2.55;;;;;;;;;;4970014;28;20067;-72
2022/09/14 04:39:25;;;;;;;5.28;2.38;;;;;;;;;;4979661;28;20042;-72
2022/09/14 04:41:51;;;;;;;4.55;2.20;;;;;;;;;;4990076;28;20472;-71
2022/09/14 04:44:17;;;;;;;;;;;;;;;;;;4990203;28;20066;-73
2022/09/14 04:46:43;;;;;;;6.57;2.40;;;;;;;;;;4974970;28;19932;-72
2022/09/14 04:49:09;;;;;;;;;;;;;;;;;;4972056;28;20449;-72
2022/09/14 04:51:36;;;;;;;3.90;2.35;;;;;;;;;;4969606;28;19930;-72
2022/09/14 04:54:03;;;;;;;5.88;2.33;;;;;;;;;;4971129;28;20050;-72
2022/09/14 04:56:31;;;;;;;7.75;2.60;;;;;;;;;;4979885;28;20050;-72
2022/09/14 04:58:58;;;;;;;7.97;2.50;;;;;;;;;;4971645;28;20050;-71
2022/09/14 05:01:25;;;;;;;4.13;2.00;;;;;;;;;;4970419;28;20047;-72
2022/09/14 05:03:52;;;;;;;4.68;2.35;;;;;;;;;;4970342;28;20129;-71
2022/09/14 05:06:19;;;;;;;4.28;2.45;;;;;;;;;;4969413;28;20778;-72
2022/09/14 05:08:46;;;;;;;5.55;2.33;;;;;;;;;;4976787;28;20045;-71
2022/09/14 05:11:13;;;;;;;4.97;2.47;;;;;;;;;;4989245;28;20054;-72
2022/09/14 05:13:40;;;;;;;8.98;3.33;;;;;;;;;;4974092;28;20303;-72
2022/09/14 05:16:11;;;;;;;5.65;2.40;;;;;;;;;;4953922;28;20069;-72
2022/09/14 05:18:37;;;;;;;5.97;2.85;;;;;;;;;;4976208;28;20042;-72
2022/09/14 05:21:03;;;;;;;;;;;;;;;;;;4983216;28;20076;-72
2022/09/14 05:23:29;;;;;;;5.22;2.50;;;;;;;;;;4984838;28;19928;-72
2022/09/14 05:25:56;;;;;;;4.15;2.13;;;;;;;;;;4994118;28;20101;-72
2022/09/14 05:28:22;;;;;;;5.00;2.80;;;;;;;;;;4993174;28;20046;-74
2022/09/14 05:30:48;;;;;;;6.13;2.38;;;;;;;;;;4990378;28;20055;-72
2022/09/14 05:33:14;;;;;;;5.07;2.70;;;;;;;;;;4956640;28;20090;-72
2022/09/14 05:35:40;;;;;;;4.05;2.38;;;;;;;;;;4973646;28;20062;-73
2022/09/14 05:38:06;;;;;;;;;;;;;;;;;;4973219;28;20058;-72
2022/09/14 05:40:32;;;;;;;4.43;2.22;;;;;;;;;;4975503;28;19922;-72
2022/09/14 05:42:58;;;;;;;5.82;2.40;;;;;;;;;;4979249;28;20444;-72
2022/09/14 05:45:24;;;;;;;5.35;2.30;;;;;;;;;;4992906;28;20492;-73
2022/09/14 05:47:50;;;;;;;4.47;2.35;;;;;;;;;;4992080;28;20051;-72
2022/09/14 05:50:16;;;;;;;;;;;;;;;;;;4993218;28;20117;-72
2022/09/14 05:52:42;;;;;;;6.30;2.47;;;;;;;;;;4975948;28;20407;-72
2022/09/14 05:55:08;;;;;;;4.43;2.15;;;;;;;;;;4975125;28;20055;-72
2022/09/14 05:57:34;;;;;;;;;;;;;;;;;;4974085;28;20058;-72
2022/09/14 06:00:00;;;;;;;5.35;2.67;;;;;;;;;;4974371;28;19922;-71
2022/09/14 06:02:26;;;;;;;6.03;2.90;;;;;;;;;;4974007;28;20125;-73
2022/09/14 06:04:52;;;;;;;5.55;2.35;;;;;;;;;;4979223;28;20050;-77
2022/09/14 06:07:18;;;;;;;7.78;2.30;;;;;;;;;;4991893;28;20166;-72
2022/09/14 06:09:44;;;;;;;8.13;2.20;;;;;;;;;;4992592;28;20062;-72
2022/09/14 06:12:10;;;;;;;6.10;2.50;;;;;;;;;;4992869;28;20119;-72
2022/09/14 06:14:36;;;;;;;4.53;2.30;;;;;;;;;;4987696;28;20053;-74
2022/09/14 06:17:04;;;;;;;;;;;;;;;;;;4992438;28;20061;-75
2022/09/14 06:19:30;;;;;;;4.68;2.35;;;;;;;;;;4992936;28;19936;-75
2022/09/14 06:21:56;;;;;;;3.55;2.20;;;;;;;;;;4991109;28;20419;-75
2022/09/14 06:24:22;;;;;;;6.00;2.58;;;;;;;;;;4992579;28;20615;-75
2022/09/14 06:26:48;;;;;;;4.65;2.30;;;;;;;;;;4992207;28;20514;-74
2022/09/14 06:29:14;;;;;;;;;;;;;;;;;;4993597;28;20372;-74
2022/09/14 06:31:40;;;;;;;6.07;2.30;;;;;;;;;;4984905;28;19977;-75
2022/09/14 06:34:06;;;;;;;4.05;2.30;;;;;;;;;;4987381;28;20050;-74
2022/09/14 06:36:32;;;;;;;5.85;2.42;;;;;;;;;;4991275;28;20507;-75
2022/09/14 06:38:59;;;;;;;5.25;2.50;;;;;;;;;;4991479;28;20365;-74
2022/09/14 06:41:29;;;;;;;6.20;2.55;;;;;;;;;;4975636;28;20096;-75
2022/09/14 06:43:55;;;;;;;5.72;2.65;;;;;;;;;;4992346;28;20089;-75
2022/09/14 06:46:23;;;;;;;7.22;2.50;;;;;;;;;;4987854;28;20082;-75
2022/09/14 06:48:54;;;;;;;6.38;2.50;;;;;;;;;;4982242;28;20066;-75
2022/09/14 06:51:26;;;;;;;6.72;3.30;;;;;;;;;;4983820;28;20046;-74
2022/09/14 06:53:52;;;;;;;5.35;2.58;;;;;;;;;;4990348;28;20046;-75
2022/09/14 06:56:19;;;;;;;6.00;2.58;;;;;;;;;;4973025;28;20090;-75
2022/09/14 06:58:45;;;;;;;8.52;2.97;;;;;;;;;;4983189;28;20100;-74
2022/09/14 07:01:13;;;;;;;8.45;3.05;;;;;;;;;;4988928;28;20050;-75
2022/09/14 07:03:40;;;;;;;5.47;2.83;;;;;;;;;;4972415;28;20105;-75
2022/09/14 07:06:16;;;;;;;6.05;2.80;;;;;;;;;;4971518;28;20511;-74
2022/09/14 07:08:42;;;;;;;7.82;2.58;;;;;;;;;;4981255;28;20069;-72
2022/09/14 07:11:10;;;;;;;4.97;2.75;;;;;;;;;;4988410;28;20051;-73
2022/09/14 07:13:36;;;;;;;5.68;2.70;;;;;;;;;;4976373;28;20505;-73
2022/09/14 07:16:02;;;;;;;7.38;2.30;;;;;;;;;;4980211;28;20089;-73
2022/09/14 07:18:31;;;;;;;5.45;2.40;;;;;;;;;;4984356;28;20061;-72
2022/09/14 07:21:01;;;;;;;5.20;2.40;;;;;;;;;;4990203;28;20058;-73
2022/09/14 07:23:28;;;;;;;5.32;2.42;;;;;;;;;;4990531;28;20057;-73
2022/09/14 07:25:54;;;;;;;;;;;;;;;;;;4978951;28;20047;-74
2022/09/14 07:28:20;;;;;;;4.93;2.35;;;;;;;;;;4978361;28;20020;-74
2022/09/14 07:30:46;;;;;;;6.78;2.67;;;;;;;;;;4982663;28;20089;-74
2022/09/14 07:33:12;;;;;;;4.38;2.30;;;;;;;;;;4977325;28;20050;-75
2022/09/14 07:35:38;;;;;;;4.63;2.42;;;;;;;;;;4970861;28;20055;-75
2022/09/14 07:38:04;;;;;;;5.30;2.53;;;;;;;;;;4968903;28;20515;-75
2022/09/14 07:40:30;;;;;;;;;;;;;;;;;;4970023;28;20385;-75
2022/09/14 07:42:56;;;;;;;8.40;2.58;;;;;;;;;;4974571;28;19929;-75
2022/09/14 07:45:22;;;;;;;;;;;;;;;;;;4971435;28;20061;-75
2022/09/14 07:47:48;;;;;;;5.10;2.13;;;;;;;;;;4974602;28;20020;-75
2022/09/14 07:50:15;;;;;;;4.25;2.08;;;;;;;;;;4972421;28;20097;-75
2022/09/14 07:52:41;;;;;;;3.83;1.90;;;;;;;;;;4973771;28;20488;-76
2022/09/14 07:55:07;;;;;;;;;;;;;;;;;;4981594;28;20296;-75
2022/09/14 07:57:33;;;;;;;4.95;2.28;;;;;;;;;;4985994;28;19932;-73
2022/09/14 07:59:59;;;;;;;;;;;;;;;;;;4970790;28;20423;-75
2022/09/14 08:02:27;;;;;;;4.95;1.83;;;;;;;;;;4970532;28;19933;-75
2022/09/14 08:04:54;;;;;;;8.93;2.28;;;;;;;;;;4969602;28;20109;-75
2022/09/14 08:07:20;;;;;;;;;;;;;;;;;;4976824;28;20130;-76
2022/09/14 08:09:46;;;;;;;4.35;1.90;;;;;;;;;;4973095;28;20012;-71
2022/09/14 08:12:12;;;;;;;;;;;;;;;;;;4988496;28;20132;-72
2022/09/14 08:14:38;;;;;;;3.97;1.80;;;;;;;;;;4980369;28;19961;-74
2022/09/14 08:17:04;;;;;;;;;;;;;;;;;;4973757;28;20297;-72
2022/09/14 08:19:30;;;;;;;4.03;1.60;;;;;;;;;;4985227;28;19926;-72
2022/09/14 08:21:56;;;;;;;;;;;;;;;;;;4985871;28;20109;-72
2022/09/14 08:24:22;;;;;;;6.20;2.07;;;;;;;;;;4989616;28;19932;-73
2022/09/14 08:26:48;;;;;;;;;;;;;;;;;;4990625;28;20376;-72
2022/09/14 08:29:15;;;;;;;2.78;1.15;;;;;;;;;;4991081;28;20008;-75
2022/09/14 08:31:43;;;;;;;2.75;1.50;;;;;;;;;;4990655;28;20389;-75
2022/09/14 08:34:09;;;;;;;4.50;1.40;;;;;;;;;;4990026;28;20068;-75
2022/09/14 08:36:36;;;;;;;1.45;0.70;;;;;;;;;;4982296;28;20101;-73
2022/09/14 08:39:03;;;;;;;4.70;1.10;;;;;;;;;;4982452;28;20038;-72
2022/09/14 08:41:29;;;;;;;3.55;1.00;;;;;;;;;;4977522;28;20502;-73
2022/09/14 08:43:55;;;;;;;;;;;;;;;;;;4980344;28;20051;-73
2022/09/14 08:46:29;;;;;;;5.13;1.08;;;;;;;;;;4990445;28;19921;-72
2022/09/14 08:48:56;;;;;;;2.92;1.23;;;;;;;;;;4988876;28;20491;-72
2022/09/14 08:51:22;;;;;;;6.78;1.45;;;;;;;;;;4989072;28;20086;-72
2022/09/14 08:53:50;;;;;;;2.42;0.77;;;;;;;;;;5003445;28;20223;-74
2022/09/14 08:56:18;;;;;;;4.57;0.93;;;;;;;;;;4989117;28;20496;-77
2022/09/14 08:58:44;;;;;;;1.10;0.30;;;;;;;;;;4993251;28;20459;-73
2022/09/14 09:01:10;;;;;;;;;;;;;;;;;;4981530;28;20046;-73
2022/09/14 09:03:36;;;;;;;3.60;0.60;;;;;;;;;;4976856;28;19930;-73
2022/09/14 09:06:02;;;;;;;;;;;;;;;;;;4973318;28;20126;-75
2022/09/14 09:08:32;;;;;;;2.15;0.73;;;;;;;;;;4982610;28;19940;-75
2022/09/14 09:11:00;;;;;;;3.88;1.00;;;;;;;;;;4982376;28;20381;-76
2022/09/14 09:13:28;;;;;;;2.92;1.00;;;;;;;;;;4972479;28;20066;-75
2022/09/14 09:15:56;;;;;;;2.70;0.70;;;;;;;;;;4979407;28;20042;-75
2022/09/14 09:18:25;;;;;;;2.63;0.52;;;;;;;;;;4974416;28;20451;-75
2022/09/14 09:20:52;;;;;;;5.30;0.60;;;;;;;;;;4972688;28;20051;-77
2022/09/14 09:23:22;;;;;;;1.48;0.50;;;;;;;;;;4982357;28;20046;-75
2022/09/14 09:25:51;;;;;;;0.93;0.52;;;;;;;;;;4978283;28;20054;-74
2022/09/14 09:28:18;;;;;;;2.20;0.80;;;;;;;;;;4974002;28;20054;-75
2022/09/14 09:30:44;;;;;;;2.03;0.88;;;;;;;;;;4994004;28;20050;-75
2022/09/14 09:33:22;;;;;;;4.03;0.60;;;;;;;;;;4988563;28;20125;-72
2022/09/14 09:35:51;;;;;;;3.03;0.45;;;;;;;;;;4988646;28;20085;-74
2022/09/14 09:38:23;;;;;;;4.15;0.93;;;;;;;;;;4978342;28;20052;-74
2022/09/14 09:40:51;;;;;;;3.00;0.50;;;;;;;;;;4993353;28;20508;-70
2022/09/14 09:43:19;;;;;;;1.63;0.60;;;;;;;;;;4990258;28;20469;-68
2022/09/14 09:45:55;;;;;;;11.48;4.10;;;;;;;;;;4981342;28;20047;-69
2022/09/14 09:48:24;;;;;;;15.95;4.72;;;;;;;;;;4993437;28;20381;-80
2022/09/14 09:51:04;;;;;;;29.73;9.55;;;;;;;;;;4991935;28;20057;-77
2022/09/14 09:53:32;;;;;;;2.80;1.02;;;;;;;;;;4983631;28;20046;-79
2022/09/14 09:55:58;;;;;;;2.80;0.82;;;;;;;;;;4988575;28;20415;-77
2022/09/14 09:58:29;;;;;;;3.85;0.55;;;;;;;;;;4993469;28;20121;-75
2022/09/14 10:00:57;;;;;;;2.80;0.50;;;;;;;;;;4993121;28;20050;-78
2022/09/14 10:03:27;;;;;;;4.28;0.75;;;;;;;;;;4992805;28;20541;-75
2022/09/14 10:06:23;;;;;;;3.33;0.70;;;;;;;;;;4991576;28;20133;-67
2022/09/14 10:08:56;;;;;;;3.38;0.73;;;;;;;;;;4963483;28;20381;-66
2022/09/14 10:11:36;;;;;;;2.45;0.63;;;;;;;;;;4991671;28;20050;-65
2022/09/14 10:14:05;;;;;;;3.97;0.60;;;;;;;;;;4992343;28;20510;-66
2022/09/14 10:16:42;;;;;;;3.03;0.63;;;;;;;;;;4992748;28;20444;-73
2022/09/14 10:19:08;;;;;;;;;;;;;;;;;;4993104;28;20177;-74
2022/09/14 10:21:34;;;;;;;2.72;0.50;;;;;;;;;;4991400;28;19938;-71
2022/09/14 10:24:00;;;;;;;;;;;;;;;;;;4992270;28;20043;-76
2022/09/14 10:26:26;;;;;;;2.70;0.50;;;;;;;;;;4992931;28;19937;-74
2022/09/14 10:28:53;;;;;;;1.90;1.00;;;;;;;;;;4991554;28;20047;-72
2022/09/14 10:31:30;;;;;;;1.45;0.70;;;;;;;;;;4978360;28;20082;-74
2022/09/14 10:33:57;;;;;;;4.10;1.05;;;;;;;;;;4981389;28;20099;-72
2022/09/14 10:36:29;;;;;;;0.47;0.47;;;;;;;;;;4989719;28;20129;-73
2022/09/14 10:39:15;;;;;;;1.67;0.70;;;;;;;;;;4972625;28;20113;-74
2022/09/14 10:41:45;;;;;;;3.78;1.10;;;;;;;;;;4975168;28;20054;-82
2022/09/14 10:44:18;;;;;;;0.47;0.47;;;;;;;;;;4972114;28;20130;-84
2022/09/14 10:47:23;;;;;;;1.25;0.57;;;;;;;;;;4972179;28;20055;-72
2022/09/14 10:49:49;;;;;;;1.98;0.43;;;;;;;;;;4950072;29;20049;-74
2022/09/14 10:52:21;;;;;;;3.20;0.50;;;;;;;;;;4944855;29;20535;-76
2022/09/14 10:54:47;;;;;;;3.13;0.88;;;;;;;;;;4943547;28;20507;-76
2022/09/14 10:57:13;;;;;;;;;;;;;;;;;;4983871;28;20046;-74
2022/09/14 10:59:45;;;;;;;6.75;1.00;;;;;;;;;;4992744;28;20016;-77
2022/09/14 11:02:17;;;;;;;2.42;0.70;;;;;;;;;;4990362;28;20054;-74
2022/09/14 11:04:46;;;;;;;1.00;0.38;;;;;;;;;;4992471;28;20046;-72
2022/09/14 11:07:12;;;;;;;1.35;0.52;;;;;;;;;;4983555;28;20130;-72
2022/09/14 11:09:41;;;;;;;0.68;0.40;;;;;;;;;;4972767;28;20129;-72
2022/09/14 11:12:07;;;;;;;2.50;0.60;;;;;;;;;;4985037;28;20046;-71
2022/09/14 11:14:38;;;;;;;2.20;0.50;;;;;;;;;;4992442;28;20046;-71
2022/09/14 11:17:13;;;;;;;3.20;0.50;;;;;;;;;;4981915;28;20483;-76
2022/09/14 11:19:51;;;;;;;3.30;0.60;;;;;;;;;;4984717;28;20502;-75
2022/09/14 11:22:17;;;;;;;1.85;0.70;;;;;;;;;;4982494;28;20415;-76
2022/09/14 11:24:51;;;;;;;3.33;0.60;;;;;;;;;;4987788;28;20519;-77
2022/09/14 11:27:27;;;;;;;2.78;0.70;;;;;;;;;;4982454;28;20055;-73
2022/09/14 11:30:02;;;;;;;2.03;0.93;;;;;;;;;;4971544;28;20077;-68
2022/09/14 11:32:31;;;;;;;3.33;1.08;;;;;;;;;;4970733;28;20058;-73
2022/09/14 11:35:00;;;;;;;3.40;0.70;;;;;;;;;;4971055;28;20058;-70
2022/09/14 11:37:31;;;;;;;1.58;0.60;;;;;;;;;;4978745;28;20112;-71
2022/09/14 11:40:09;;;;;;;6.20;0.60;;;;;;;;;;4985807;28;20632;-70
2022/09/14 11:42:58;;;;;;;3.67;1.05;;;;;;;;;;4991551;28;20503;-70
2022/09/14 11:45:34;;;;;;;1.95;0.68;;;;;;;;;;4981122;28;20121;-71
2022/09/14 11:48:12;;;;;;;4.38;0.73;;;;;;;;;;4971039;28;20051;-73
2022/09/14 11:50:42;;;;;;;4.25;1.08;;;;;;;;;;4971225;28;20377;-69
2022/09/14 11:53:12;;;;;;;5.80;0.73;;;;;;;;;;4975684;28;20138;-76
2022/09/14 11:55:43;;;;;;;0.60;0.60;;;;;;;;;;4989146;28;20399;-70
2022/09/14 11:58:16;;;;;;;2.35;0.63;;;;;;;;;;4981124;28;20388;-71
2022/09/14 12:00:44;;;;;;;1.40;0.55;;;;;;;;;;4983970;28;20082;-72
2022/09/14 12:03:20;;;;;;;3.25;0.60;;;;;;;;;;4970623;28;20485;-73
2022/09/14 12:05:46;;;;;;;;;;;;;;;;;;4972341;28;20054;-72
2022/09/14 12:08:30;;;;;;;0.52;0.40;;;;;;;;;;4981220;28;20295;-72
2022/09/14 12:11:09;;;;;;;2.85;0.65;;;;;;;;;;4990755;28;20046;-72
2022/09/14 12:13:38;;;;;;;2.25;0.60;;;;;;;;;;4991275;28;20122;-72
2022/09/14 12:16:06;;;;;;;2.38;0.68;;;;;;;;;;4990759;28;20047;-71
2022/09/14 12:18:32;;;;;;;3.30;0.73;;;;;;;;;;4990527;28;20046;-71
2022/09/14 12:21:02;;;;;;;3.05;0.60;;;;;;;;;;4989681;28;20062;-72
2022/09/14 12:23:40;;;;;;;2.22;0.52;;;;;;;;;;4989969;28;20057;-71
2022/09/14 12:26:07;;;;;;;2.17;0.50;;;;;;;;;;5005623;28;20057;-72
2022/09/14 12:28:36;;;;;;;1.85;0.75;;;;;;;;;;4988952;28;20238;-72
2022/09/14 12:31:02;;;;;;;2.30;0.55;;;;;;;;;;4993629;28;20050;-72
2022/09/14 12:33:31;;;;;;;2.88;0.75;;;;;;;;;;4993909;28;20542;-71
2022/09/14 12:35:58;;;;;;;1.23;0.55;;;;;;;;;;4994109;28;20054;-72
2022/09/14 12:38:30;;;;;;;5.35;0.60;;;;;;;;;;4992510;28;20054;-71
2022/09/14 12:40:56;;;;;;;2.58;0.70;;;;;;;;;;4993721;28;20054;-71
2022/09/14 12:43:32;;;;;;;1.70;0.70;;;;;;;;;;4990275;28;20050;-71
2022/09/14 12:46:07;;;;;;;2.13;0.40;;;;;;;;;;4994652;28;20054;-73
2022/09/14 12:48:49;;;;;;;3.00;0.80;;;;;;;;;;4993147;28;20042;-72
2022/09/14 12:51:21;;;;;;;3.83;0.75;;;;;;;;;;4973773;28;20062;-74
2022/09/14 12:53:52;;;;;;;1.13;0.40;;;;;;;;;;4985494;28;20125;-71
2022/09/14 12:56:26;;;;;;;1.52;0.57;;;;;;;;;;4994359;28;20054;-72
2022/09/14 12:59:01;;;;;;;2.28;0.68;;;;;;;;;;4979457;28;20137;-72
2022/09/14 13:01:40;;;;;;;1.08;0.50;;;;;;;;;;4974672;28;20061;-72
2022/09/14 13:04:12;;;;;;;2.92;0.80;;;;;;;;;;4974273;28;20055;-71
2022/09/14 13:06:43;;;;;;;1.77;0.52;;;;;;;;;;4972766;28;20841;-71
2022/09/14 13:09:19;;;;;;;2.50;0.75;;;;;;;;;;4983827;28;20042;-70
2022/09/14 13:11:45;;;;;;;;;;;;;;;;;;4982012;28;20113;-73
2022/09/14 13:14:18;;;;;;;1.83;0.60;;;;;;;;;;4992009;28;19929;-72
2022/09/14 13:16:46;;;;;;;1.92;0.70;;;;;;;;;;4990064;28;20082;-72
2022/09/14 13:19:23;;;;;;;1.25;0.57;;;;;;;;;;4978330;28;20047;-78
2022/09/14 13:21:51;;;;;;;3.72;0.55;;;;;;;;;;4984513;28;20125;-76
2022/09/14 13:24:20;;;;;;;2.10;0.60;;;;;;;;;;4982919;28;20060;-74
2022/09/14 13:26:46;;;;;;;2.33;0.60;;;;;;;;;;4991660;28;20092;-76
2022/09/14 13:29:14;;;;;;;2.85;0.90;;;;;;;;;;4957516;28;20054;-75
2022/09/14 13:31:43;;;;;;;7.00;1.02;;;;;;;;;;4973228;28;20046;-77
2022/09/14 13:34:21;;;;;;;3.90;0.88;;;;;;;;;;4992702;28;20054;-74
2022/09/14 13:36:47;;;;;;;4.18;0.90;;;;;;;;;;4991374;28;20522;-76
2022/09/14 13:39:23;;;;;;;3.90;0.77;;;;;;;;;;4987210;28;20038;-76
2022/09/14 13:41:49;;;;;;;2.28;0.80;;;;;;;;;;4972521;28;20086;-75
2022/09/14 13:44:15;;;;;;;2.47;0.90;;;;;;;;;;4992904;28;20072;-74
2022/09/14 13:46:42;;;;;;;4.03;1.13;;;;;;;;;;4992984;28;20042;-74
2022/09/14 13:49:08;;;;;;;4.38;1.05;;;;;;;;;;4988799;28;20054;-78
2022/09/14 13:51:34;;;;;;;3.10;1.02;;;;;;;;;;4981127;28;20384;-77
2022/09/14 13:54:39;;;;;;;3.25;1.08;;;;;;;;;;4991307;28;20042;-72
2022/09/14 13:57:24;;;;;;;2.67;0.80;;;;;;;;;;4932923;29;20058;-70
2022/09/14 14:00:09;;;;;;;3.45;0.77;;;;;;;;;;4921940;29;20052;-73
2022/09/14 14:02:36;;;;;;;1.50;0.77;;;;;;;;;;4955309;28;20134;-73
2022/09/14 14:05:03;;;;;;;2.58;0.88;;;;;;;;;;4973919;28;20189;-75
2022/09/14 14:07:33;;;;;;;2.92;1.00;;;;;;;;;;4972724;28;20042;-76
2022/09/14 14:10:00;;;;;;;3.70;0.90;;;;;;;;;;4984593;28;20692;-77
2022/09/14 14:12:38;;;;;;;2.28;0.85;;;;;;;;;;4985985;28;20050;-79
2022/09/14 14:15:24;;;;;;;1.80;0.77;;;;;;;;;;4983201;28;20393;-77
2022/09/14 14:17:50;;;;;;;3.47;1.20;;;;;;;;;;4979459;28;20050;-78
2022/09/14 14:20:25;;;;;;;4.85;1.23;;;;;;;;;;4972756;28;20038;-75
2022/09/14 14:22:56;;;;;;;3.22;1.05;;;;;;;;;;4972508;28;20077;-76
2022/09/14 14:25:32;;;;;;;2.88;1.00;;;;;;;;;;4972253;28;20061;-74
2022/09/14 14:28:02;;;;;;;6.10;0.85;;;;;;;;;;4971563;28;20166;-71
2022/09/14 14:30:29;;;;;;;4.57;1.10;;;;;;;;;;4987358;28;20039;-74
2022/09/14 14:32:56;;;;;;;4.05;0.80;;;;;;;;;;4976098;28;20054;-75
2022/09/14 14:35:23;;;;;;;3.50;0.85;;;;;;;;;;4976769;28;20063;-72
2022/09/14 14:37:50;;;;;;;2.35;1.00;;;;;;;;;;4982476;28;20468;-73
2022/09/14 14:40:16;;;;;;;4.72;1.08;;;;;;;;;;4983839;28;20050;-71
2022/09/14 14:42:43;;;;;;;3.70;1.08;;;;;;;;;;4978489;28;20050;-70
2022/09/14 14:45:13;;;;;;;4.22;0.95;;;;;;;;;;4983300;28;20043;-70
2022/09/14 14:47:40;;;;;;;3.08;0.68;;;;;;;;;;4981796;28;20053;-70
2022/09/14 14:50:12;;;;;;;4.57;0.90;;;;;;;;;;4981294;28;20503;-70
2022/09/14 14:52:39;;;;;;;2.30;0.85;;;;;;;;;;4986132;28;20074;-70
2022/09/14 14:55:05;;;;;;;3.65;0.80;;;;;;;;;;4982124;28;20133;-70
2022/09/14 14:57:31;;;;;;;5.13;0.80;;;;;;;;;;4984650;28;20046;-70
2022/09/14 14:59:57;;;;;;;4.28;0.88;;;;;;;;;;4990089;28;20053;-69
2022/09/14 15:02:23;;;;;;;6.45;1.10;;;;;;;;;;4990389;28;20053;-70
2022/09/14 15:04:49;;;;;;;1.33;0.60;;;;;;;;;;4981722;28;20042;-74